SAEZ/EZE METAR and TAF weather

Enter ICAO airport designator
Station Type Date Time Source
SAEZ METAR 2021/01/20 23:00 UTC NOAA

SAEZ 202300Z 09015KT CAVOK 28/13 Q1017 NOSIG


Station Type Date Time Source
SAEZ Decoded METAR 2021/01/20 23:00 UTC NOAA

Ezeiza Aerodrome, Argentina (SAEZ) 34-49S 058-32W 20M
Jan 20, 2021 - 06:00 PM EST / 2021.01.20 2300 UTC
Wind: from the E (090 degrees) at 17 MPH (15 KT):0
Visibility: greater than 7 mile(s):0
Temperature: 82 F (28 C)
Dew Point: 55 F (13 C)
Relative Humidity: 39%
Pressure (altimeter): 30.03 in. Hg (1017 hPa)
ob: SAEZ 202300Z 09015KT CAVOK 28/13 Q1017 NOSIG
cycle: 23

Station Type Date Time Source
SAEZ TAF 2021/01/20 18:13 UTC NOAA

TAF SAEZ 201700Z 2018/2118 07010G25KT CAVOK TX34/2018Z TN21/2109Z
BECMG 2106/2109 02008KT
BECMG 2112/2115 01010KT

Example: see airport list